GCFV/FUE METAR and TAF weather

Enter ICAO airport designator
Station Type Date Time Source
GCFV METAR 2022/01/25 05:30 UTC NOAA

GCFV 250530Z AUTO 35007KT 9999 ////// 17/13 Q1022


Station Type Date Time Source
GCFV Decoded METAR 2022/01/25 05:30 UTC NOAA

Fuerteventura / Aeropuerto, Spain (GCFV) 28-27N 013-52W 30M
Jan 25, 2022 - 12:30 AM EST / 2022.01.25 0530 UTC
Wind: from the N (350 degrees) at 8 MPH (7 KT):0
Visibility: greater than 7 mile(s):0
Temperature: 62 F (17 C)
Dew Point: 55 F (13 C)
Relative Humidity: 77%
Pressure (altimeter): 30.18 in. Hg (1022 hPa)
ob: GCFV 250530Z AUTO 35007KT 9999 ////// 17/13 Q1022
cycle: 5

Station Type Date Time Source
GCFV TAF 2022/01/25 03:27 UTC NOAA

TAF TAF GCFV 250200Z 2503/2603 34005KT 9999 FEW020 TX21/2514Z TN15/2507Z
BECMG 2508/2510 02015KT
BECMG 2517/2519 32008KT

Example: see airport list